sensor_id;sensor_type;location;lat;lon;timestamp;pressure;altitude;pressure_sealevel;temperature
15333;BMP180;7766;51.534;6.722;2023-07-30T00:00:32;98115.22;;;15.09
15333;BMP180;7766;51.534;6.722;2023-07-30T00:01:33;98118.91;;;15.03
15333;BMP180;7766;51.534;6.722;2023-07-30T00:02:34;98117.84;;;15.09
15333;BMP180;7766;51.534;6.722;2023-07-30T00:03:35;98119.94;;;15.17
15333;BMP180;7766;51.534;6.722;2023-07-30T00:04:36;98123.06;;;15.24
15333;BMP180;7766;51.534;6.722;2023-07-30T00:05:37;98129.72;;;15.11
15333;BMP180;7766;51.534;6.722;2023-07-30T00:06:38;98135.28;;;15.15
15333;BMP180;7766;51.534;6.722;2023-07-30T00:07:39;98128.91;;;15.21
15333;BMP180;7766;51.534;6.722;2023-07-30T00:08:40;98135.00;;;15.16
15333;BMP180;7766;51.534;6.722;2023-07-30T00:09:41;98134.78;;;15.03
15333;BMP180;7766;51.534;6.722;2023-07-30T00:10:42;98119.00;;;14.89
15333;BMP180;7766;51.534;6.722;2023-07-30T00:11:43;98120.53;;;14.85
15333;BMP180;7766;51.534;6.722;2023-07-30T00:12:44;98118.69;;;14.85
15333;BMP180;7766;51.534;6.722;2023-07-30T00:13:45;98120.53;;;14.94
15333;BMP180;7766;51.534;6.722;2023-07-30T00:14:46;98126.38;;;14.96
15333;BMP180;7766;51.534;6.722;2023-07-30T00:15:48;98127.94;;;15.02
15333;BMP180;7766;51.534;6.722;2023-07-30T00:16:48;98138.53;;;14.83
15333;BMP180;7766;51.534;6.722;2023-07-30T00:17:49;98130.06;;;14.91
15333;BMP180;7766;51.534;6.722;2023-07-30T00:18:50;98138.00;;;14.91
15333;BMP180;7766;51.534;6.722;2023-07-30T00:19:51;98140.09;;;14.98
15333;BMP180;7766;51.534;6.722;2023-07-30T00:20:52;98129.81;;;14.97
15333;BMP180;7766;51.534;6.722;2023-07-30T00:21:53;98133.22;;;14.97
15333;BMP180;7766;51.534;6.722;2023-07-30T00:22:54;98125.03;;;14.99
15333;BMP180;7766;51.534;6.722;2023-07-30T00:23:55;98130.31;;;14.99
15333;BMP180;7766;51.534;6.722;2023-07-30T00:24:56;98141.38;;;15.06
15333;BMP180;7766;51.534;6.722;2023-07-30T00:25:57;98137.69;;;15.07
15333;BMP180;7766;51.534;6.722;2023-07-30T00:26:58;98136.34;;;15.09
15333;BMP180;7766;51.534;6.722;2023-07-30T00:27:59;98131.59;;;15.06
15333;BMP180;7766;51.534;6.722;2023-07-30T00:29:00;98117.88;;;14.94
15333;BMP180;7766;51.534;6.722;2023-07-30T00:30:01;98114.47;;;14.94
15333;BMP180;7766;51.534;6.722;2023-07-30T00:31:02;98108.41;;;14.84
15333;BMP180;7766;51.534;6.722;2023-07-30T00:32:03;98107.34;;;14.90
15333;BMP180;7766;51.534;6.722;2023-07-30T00:33:04;98104.72;;;14.80
15333;BMP180;7766;51.534;6.722;2023-07-30T00:34:05;98119.03;;;14.64
15333;BMP180;7766;51.534;6.722;2023-07-30T00:35:06;98122.16;;;14.81
15333;BMP180;7766;51.534;6.722;2023-07-30T00:36:08;98128.50;;;14.75
15333;BMP180;7766;51.534;6.722;2023-07-30T00:37:09;98125.84;;;14.90
15333;BMP180;7766;51.534;6.722;2023-07-30T00:38:10;98136.38;;;14.94
15333;BMP180;7766;51.534;6.722;2023-07-30T00:39:11;98137.22;;;14.80
15333;BMP180;7766;51.534;6.722;2023-07-30T00:40:12;98118.44;;;14.87
15333;BMP180;7766;51.534;6.722;2023-07-30T00:41:13;98105.00;;;14.78
15333;BMP180;7766;51.534;6.722;2023-07-30T00:42:14;98110.06;;;14.56
15333;BMP180;7766;51.534;6.722;2023-07-30T00:43:15;98104.22;;;14.63
15333;BMP180;7766;51.534;6.722;2023-07-30T00:44:16;98096.03;;;14.70
15333;BMP180;7766;51.534;6.722;2023-07-30T00:45:17;98103.41;;;14.77
15333;BMP180;7766;51.534;6.722;2023-07-30T00:46:18;98100.00;;;14.62
15333;BMP180;7766;51.534;6.722;2023-07-30T00:47:19;98094.97;;;14.66
15333;BMP180;7766;51.534;6.722;2023-07-30T00:48:21;98106.56;;;14.75
15333;BMP180;7766;51.534;6.722;2023-07-30T00:49:22;98104.72;;;14.80
15333;BMP180;7766;51.534;6.722;2023-07-30T00:50:23;98119.50;;;14.86
15333;BMP180;7766;51.534;6.722;2023-07-30T00:51:26;98122.16;;;14.91
15333;BMP180;7766;51.534;6.722;2023-07-30T00:52:27;98126.63;;;14.90
15333;BMP180;7766;51.534;6.722;2023-07-30T00:53:28;98123.19;;;14.94
15333;BMP180;7766;51.534;6.722;2023-07-30T00:54:30;98132.44;;;14.97
15333;BMP180;7766;51.534;6.722;2023-07-30T00:55:31;98132.97;;;14.94
15333;BMP180;7766;51.534;6.722;2023-07-30T00:56:32;98131.91;;;14.95
15333;BMP180;7766;51.534;6.722;2023-07-30T00:57:35;98132.19;;;14.93
15333;BMP180;7766;51.534;6.722;2023-07-30T00:58:37;98135.34;;;14.86
15333;BMP180;7766;51.534;6.722;2023-07-30T00:59:38;98140.66;;;14.91
15333;BMP180;7766;51.534;6.722;2023-07-30T01:00:40;98148.31;;;14.92
15333;BMP180;7766;51.534;6.722;2023-07-30T01:01:42;98141.44;;;14.76
15333;BMP180;7766;51.534;6.722;2023-07-30T01:02:43;98141.69;;;14.80
15333;BMP180;7766;51.534;6.722;2023-07-30T01:03:45;98146.75;;;14.67
15333;BMP180;7766;51.534;6.722;2023-07-30T01:04:46;98121.94;;;14.68
15333;BMP180;7766;51.534;6.722;2023-07-30T01:05:47;98112.66;;;14.65
15333;BMP180;7766;51.534;6.722;2023-07-30T01:06:48;98124.28;;;14.69
15333;BMP180;7766;51.534;6.722;2023-07-30T01:07:51;98126.91;;;14.74
15333;BMP180;7766;51.534;6.722;2023-07-30T01:08:52;98131.66;;;14.77
15333;BMP180;7766;51.534;6.722;2023-07-30T01:09:53;98140.91;;;14.79
15333;BMP180;7766;51.534;6.722;2023-07-30T01:10:55;98145.41;;;14.84
15333;BMP180;7766;51.534;6.722;2023-07-30T01:11:56;98137.22;;;14.80
15333;BMP180;7766;51.534;6.722;2023-07-30T01:13:03;98140.13;;;14.84
15333;BMP180;7766;51.534;6.722;2023-07-30T01:14:05;98140.38;;;14.87
15333;BMP180;7766;51.534;6.722;2023-07-30T01:15:07;98139.03;;;14.85
15333;BMP180;7766;51.534;6.722;2023-07-30T01:16:10;98140.66;;;14.81
15333;BMP180;7766;51.534;6.722;2023-07-30T01:17:12;98143.56;;;14.75
15333;BMP180;7766;51.534;6.722;2023-07-30T01:18:13;98154.41;;;14.68
15333;BMP180;7766;51.534;6.722;2023-07-30T01:19:14;98144.91;;;14.72
15333;BMP180;7766;51.534;6.722;2023-07-30T01:20:15;98153.91;;;14.61
15333;BMP180;7766;51.534;6.722;2023-07-30T01:21:16;98155.00;;;14.41
15333;BMP180;7766;51.534;6.722;2023-07-30T01:22:17;98161.03;;;14.56
15333;BMP180;7766;51.534;6.722;2023-07-30T01:23:18;98149.13;;;14.63
15333;BMP180;7766;51.534;6.722;2023-07-30T01:24:18;98140.97;;;14.45
15333;BMP180;7766;51.534;6.722;2023-07-30T01:25:21;98131.47;;;14.49
15333;BMP180;7766;51.534;6.722;2023-07-30T01:26:27;98129.06;;;14.53
15333;BMP180;7766;51.534;6.722;2023-07-30T01:27:31;98145.19;;;14.51
15333;BMP180;7766;51.534;6.722;2023-07-30T01:28:37;98141.22;;;14.59
15333;BMP180;7766;51.534;6.722;2023-07-30T01:29:51;98140.16;;;14.60
15333;BMP180;7766;51.534;6.722;2023-07-30T01:30:55;98137.81;;;14.29
15333;BMP180;7766;51.534;6.722;2023-07-30T01:32:00;98129.88;;;14.34
15333;BMP180;7766;51.534;6.722;2023-07-30T01:33:03;98124.88;;;14.37
15333;BMP180;7766;51.534;6.722;2023-07-30T01:34:05;98123.81;;;14.43
15333;BMP180;7766;51.534;6.722;2023-07-30T01:35:08;98133.31;;;14.49
15333;BMP180;7766;51.534;6.722;2023-07-30T01:36:11;98146.53;;;14.54
15333;BMP180;7766;51.534;6.722;2023-07-30T01:37:15;98152.84;;;14.58
15333;BMP180;7766;51.534;6.722;2023-07-30T01:38:17;98153.63;;;14.58
15333;BMP180;7766;51.534;6.722;2023-07-30T01:39:18;98168.72;;;14.62
15333;BMP180;7766;51.534;6.722;2023-07-30T01:40:20;98166.56;;;14.64
15333;BMP180;7766;51.534;6.722;2023-07-30T01:41:22;98171.59;;;14.66
15333;BMP180;7766;51.534;6.722;2023-07-30T01:42:31;98173.97;;;14.67
15333;BMP180;7766;51.534;6.722;2023-07-30T01:43:32;98184.03;;;14.70
15333;BMP180;7766;51.534;6.722;2023-07-30T01:44:33;98185.34;;;14.68
15333;BMP180;7766;51.534;6.722;2023-07-30T01:45:34;98180.84;;;14.63
15333;BMP180;7766;51.534;6.722;2023-07-30T01:46:35;98184.78;;;14.66
15333;BMP180;7766;51.534;6.722;2023-07-30T01:47:36;98179.78;;;14.64
15333;BMP180;7766;51.534;6.722;2023-07-30T01:48:37;98184.00;;;14.65
15333;BMP180;7766;51.534;6.722;2023-07-30T01:49:38;98190.06;;;14.66
15333;BMP180;7766;51.534;6.722;2023-07-30T01:50:39;98181.66;;;14.59
15333;BMP180;7766;51.534;6.722;2023-07-30T01:51:39;98192.47;;;14.53
15333;BMP180;7766;51.534;6.722;2023-07-30T01:52:40;98191.94;;;14.56
15333;BMP180;7766;51.534;6.722;2023-07-30T01:53:41;98193.53;;;14.57
15333;BMP180;7766;51.534;6.722;2023-07-30T01:54:41;98192.47;;;14.58
15333;BMP180;7766;51.534;6.722;2023-07-30T01:55:43;98194.06;;;14.59
15333;BMP180;7766;51.534;6.722;2023-07-30T01:56:44;98199.63;;;14.57
15333;BMP180;7766;51.534;6.722;2023-07-30T01:57:45;98194.06;;;14.59
15333;BMP180;7766;51.534;6.722;2023-07-30T01:58:46;98196.19;;;14.52
15333;BMP180;7766;51.534;6.722;2023-07-30T01:59:47;98193.03;;;14.55
15333;BMP180;7766;51.534;6.722;2023-07-30T02:00:48;98190.91;;;14.57
15333;BMP180;7766;51.534;6.722;2023-07-30T02:01:49;98194.59;;;14.56
15333;BMP180;7766;51.534;6.722;2023-07-30T02:02:50;98187.47;;;14.56
15333;BMP180;7766;51.534;6.722;2023-07-30T02:03:51;98189.59;;;14.54
15333;BMP180;7766;51.534;6.722;2023-07-30T02:04:52;98189.31;;;14.51
15333;BMP180;7766;51.534;6.722;2023-07-30T02:05:53;98192.47;;;14.53
15333;BMP180;7766;51.534;6.722;2023-07-30T02:06:54;98187.19;;;14.53
15333;BMP180;7766;51.534;6.722;2023-07-30T02:07:55;98192.47;;;14.53
15333;BMP180;7766;51.534;6.722;2023-07-30T02:08:56;98191.69;;;14.52
15333;BMP180;7766;51.534;6.722;2023-07-30T02:09:57;98189.31;;;14.51
15333;BMP180;7766;51.534;6.722;2023-07-30T02:10:59;98186.69;;;14.46
15333;BMP180;7766;51.534;6.722;2023-07-30T02:12:00;98183.75;;;14.47
15333;BMP180;7766;51.534;6.722;2023-07-30T02:13:01;98191.97;;;14.46
15333;BMP180;7766;51.534;6.722;2023-07-30T02:14:02;98178.75;;;14.31
15333;BMP180;7766;51.534;6.722;2023-07-30T02:15:03;98195.66;;;14.35
15333;BMP180;7766;51.534;6.722;2023-07-30T02:16:04;98193.03;;;14.30
15333;BMP180;7766;51.534;6.722;2023-07-30T02:17:05;98200.91;;;14.16
15333;BMP180;7766;51.534;6.722;2023-07-30T02:18:06;98204.09;;;14.28
15333;BMP180;7766;51.534;6.722;2023-07-30T02:19:10;98199.88;;;14.22
15333;BMP180;7766;51.534;6.722;2023-07-30T02:20:11;98197.75;;;14.14
15333;BMP180;7766;51.534;6.722;2023-07-30T02:21:12;98196.44;;;14.16
15333;BMP180;7766;51.534;6.722;2023-07-30T02:22:13;98201.44;;;13.94
15333;BMP180;7766;51.534;6.722;2023-07-30T02:23:15;98199.84;;;13.97
15333;BMP180;7766;51.534;6.722;2023-07-30T02:24:19;98200.63;;;13.93
15333;BMP180;7766;51.534;6.722;2023-07-30T02:25:20;98212.00;;;13.94
15333;BMP180;7766;51.534;6.722;2023-07-30T02:26:21;98200.63;;;13.83
15333;BMP180;7766;51.534;6.722;2023-07-30T02:27:22;98207.22;;;13.91
15333;BMP180;7766;51.534;6.722;2023-07-30T02:28:23;98214.88;;;13.92
15333;BMP180;7766;51.534;6.722;2023-07-30T02:29:24;98212.78;;;13.99
15333;BMP180;7766;51.534;6.722;2023-07-30T02:30:25;98218.22;;;13.73
15333;BMP180;7766;51.534;6.722;2023-07-30T02:31:26;98212.75;;;13.84
15333;BMP180;7766;51.534;6.722;2023-07-30T02:32:27;98215.66;;;13.93
15333;BMP180;7766;51.534;6.722;2023-07-30T02:33:28;98222.53;;;13.89
15333;BMP180;7766;51.534;6.722;2023-07-30T02:34:29;98211.47;;;13.97
15333;BMP180;7766;51.534;6.722;2023-07-30T02:35:30;98218.88;;;14.04
15333;BMP180;7766;51.534;6.722;2023-07-30T02:36:30;98204.06;;;14.08
15333;BMP180;7766;51.534;6.722;2023-07-30T02:37:31;98203.56;;;14.11
15333;BMP180;7766;51.534;6.722;2023-07-30T02:38:32;98203.81;;;14.05
15333;BMP180;7766;51.534;6.722;2023-07-30T02:39:33;98200.66;;;14.13
15333;BMP180;7766;51.534;6.722;2023-07-30T02:40:34;98200.13;;;14.15
15333;BMP180;7766;51.534;6.722;2023-07-30T02:41:35;98201.19;;;14.19
15333;BMP180;7766;51.534;6.722;2023-07-30T02:42:36;98205.16;;;14.22
15333;BMP180;7766;51.534;6.722;2023-07-30T02:43:37;98208.06;;;14.25
15333;BMP180;7766;51.534;6.722;2023-07-30T02:44:38;98204.63;;;14.25
15333;BMP180;7766;51.534;6.722;2023-07-30T02:45:39;98206.22;;;14.26
15333;BMP180;7766;51.534;6.722;2023-07-30T02:46:40;98203.31;;;14.27
15333;BMP180;7766;51.534;6.722;2023-07-30T02:47:41;98200.41;;;14.24
15333;BMP180;7766;51.534;6.722;2023-07-30T02:48:42;98200.94;;;14.26
15333;BMP180;7766;51.534;6.722;2023-07-30T02:49:43;98206.75;;;14.23
15333;BMP180;7766;51.534;6.722;2023-07-30T02:50:45;98204.88;;;14.23
15333;BMP180;7766;51.534;6.722;2023-07-30T02:51:45;98203.31;;;14.22
15333;BMP180;7766;51.534;6.722;2023-07-30T02:52:49;98201.72;;;14.21
15333;BMP180;7766;51.534;6.722;2023-07-30T02:53:52;98203.56;;;14.21
15333;BMP180;7766;51.534;6.722;2023-07-30T02:54:57;98202.50;;;14.17
15333;BMP180;7766;51.534;6.722;2023-07-30T02:55:58;98207.00;;;14.16
15333;BMP180;7766;51.534;6.722;2023-07-30T02:56:59;98200.91;;;14.16
15333;BMP180;7766;51.534;6.722;2023-07-30T02:58:00;98206.47;;;14.14
15333;BMP180;7766;51.534;6.722;2023-07-30T02:59:02;98207.00;;;14.16
15333;BMP180;7766;51.534;6.722;2023-07-30T03:00:03;98197.47;;;14.15
15333;BMP180;7766;51.534;6.722;2023-07-30T03:01:08;98202.75;;;14.01
15333;BMP180;7766;51.534;6.722;2023-07-30T03:02:10;98205.91;;;14.08
15333;BMP180;7766;51.534;6.722;2023-07-30T03:03:11;98202.50;;;14.07
15333;BMP180;7766;51.534;6.722;2023-07-30T03:04:12;98204.59;;;14.05
15333;BMP180;7766;51.534;6.722;2023-07-30T03:05:13;98204.06;;;14.08
15333;BMP180;7766;51.534;6.722;2023-07-30T03:06:14;98205.91;;;14.08
15333;BMP180;7766;51.534;6.722;2023-07-30T03:07:17;98201.19;;;14.10
15333;BMP180;7766;51.534;6.722;2023-07-30T03:08:19;98209.34;;;14.08
15333;BMP180;7766;51.534;6.722;2023-07-30T03:09:20;98210.91;;;13.99
15333;BMP180;7766;51.534;6.722;2023-07-30T03:10:21;98205.41;;;13.96
15333;BMP180;7766;51.534;6.722;2023-07-30T03:11:22;98202.75;;;14.01
15333;BMP180;7766;51.534;6.722;2023-07-30T03:12:23;98205.63;;;13.99
15333;BMP180;7766;51.534;6.722;2023-07-30T03:13:25;98207.22;;;14.00
15333;BMP180;7766;51.534;6.722;2023-07-30T03:14:26;98202.25;;;13.99
15333;BMP180;7766;51.534;6.722;2023-07-30T03:15:27;98197.19;;;13.97
15333;BMP180;7766;51.534;6.722;2023-07-30T03:16:28;98205.91;;;13.98
15333;BMP180;7766;51.534;6.722;2023-07-30T03:17:29;98204.59;;;14.00
15333;BMP180;7766;51.534;6.722;2023-07-30T03:18:30;98206.72;;;14.03
15333;BMP180;7766;51.534;6.722;2023-07-30T03:19:31;98204.59;;;13.86
15333;BMP180;7766;51.534;6.722;2023-07-30T03:20:32;98201.66;;;13.87
15333;BMP180;7766;51.534;6.722;2023-07-30T03:21:33;98204.31;;;13.82
15333;BMP180;7766;51.534;6.722;2023-07-30T03:22:35;98205.63;;;13.90
15333;BMP180;7766;51.534;6.722;2023-07-30T03:23:36;98202.75;;;13.91
15333;BMP180;7766;51.534;6.722;2023-07-30T03:24:37;98198.00;;;13.93
15333;BMP180;7766;51.534;6.722;2023-07-30T03:25:38;98208.03;;;13.96
15333;BMP180;7766;51.534;6.722;2023-07-30T03:26:39;98206.97;;;13.97
15333;BMP180;7766;51.534;6.722;2023-07-30T03:27:39;98210.38;;;13.93
15333;BMP180;7766;51.534;6.722;2023-07-30T03:28:40;98213.03;;;13.97
15333;BMP180;7766;51.534;6.722;2023-07-30T03:29:41;98207.22;;;14.00
15333;BMP180;7766;51.534;6.722;2023-07-30T03:30:42;98205.13;;;14.02
15333;BMP180;7766;51.534;6.722;2023-07-30T03:31:43;98204.34;;;14.02
15333;BMP180;7766;51.534;6.722;2023-07-30T03:32:44;98201.94;;;13.91
15333;BMP180;7766;51.534;6.722;2023-07-30T03:33:45;98204.31;;;13.92
15333;BMP180;7766;51.534;6.722;2023-07-30T03:34:47;98209.88;;;13.96
15333;BMP180;7766;51.534;6.722;2023-07-30T03:35:48;98204.59;;;13.96
15333;BMP180;7766;51.534;6.722;2023-07-30T03:36:49;98208.56;;;13.98
15333;BMP180;7766;51.534;6.722;2023-07-30T03:37:51;98209.59;;;13.97
15333;BMP180;7766;51.534;6.722;2023-07-30T03:38:52;98206.19;;;13.97
15333;BMP180;7766;51.534;6.722;2023-07-30T03:39:53;98207.75;;;13.97
15333;BMP180;7766;51.534;6.722;2023-07-30T03:40:54;98211.47;;;13.97
15333;BMP180;7766;51.534;6.722;2023-07-30T03:41:55;98213.84;;;13.98
15333;BMP180;7766;51.534;6.722;2023-07-30T03:42:56;98208.84;;;13.97
15333;BMP180;7766;51.534;6.722;2023-07-30T03:43:57;98211.47;;;13.97
15333;BMP180;7766;51.534;6.722;2023-07-30T03:44:58;98211.47;;;13.97
15333;BMP180;7766;51.534;6.722;2023-07-30T03:45:59;98218.31;;;13.97
15333;BMP180;7766;51.534;6.722;2023-07-30T03:47:00;98224.09;;;13.95
15333;BMP180;7766;51.534;6.722;2023-07-30T03:48:01;98213.56;;;13.95
15333;BMP180;7766;51.534;6.722;2023-07-30T03:49:02;98218.59;;;13.91
15333;BMP180;7766;51.534;6.722;2023-07-30T03:50:03;98221.22;;;13.91
15333;BMP180;7766;51.534;6.722;2023-07-30T03:51:04;98216.47;;;13.93
15333;BMP180;7766;51.534;6.722;2023-07-30T03:52:05;98228.34;;;13.96
15333;BMP180;7766;51.534;6.722;2023-07-30T03:53:06;98221.22;;;13.96
15333;BMP180;7766;51.534;6.722;2023-07-30T03:54:07;98218.59;;;13.96
15333;BMP180;7766;51.534;6.722;2023-07-30T03:55:08;98219.09;;;13.88
15333;BMP180;7766;51.534;6.722;2023-07-30T03:56:10;98223.06;;;13.86
15333;BMP180;7766;51.534;6.722;2023-07-30T03:57:11;98225.66;;;13.81
15333;BMP180;7766;51.534;6.722;2023-07-30T03:58:12;98229.91;;;13.87
15333;BMP180;7766;51.534;6.722;2023-07-30T03:59:13;98231.50;;;13.83
15333;BMP180;7766;51.534;6.722;2023-07-30T04:00:14;98227.78;;;13.84
15333;BMP180;7766;51.534;6.722;2023-07-30T04:01:14;98225.69;;;13.86
15333;BMP180;7766;51.534;6.722;2023-07-30T04:02:15;98230.19;;;13.85
15333;BMP180;7766;51.534;6.722;2023-07-30T04:03:16;98232.53;;;13.87
15333;BMP180;7766;51.534;6.722;2023-07-30T04:04:17;98225.94;;;13.80
15333;BMP180;7766;51.534;6.722;2023-07-30T04:05:18;98236.69;;;13.73
15333;BMP180;7766;51.534;6.722;2023-07-30T04:06:19;98233.25;;;13.68
15333;BMP180;7766;51.534;6.722;2023-07-30T04:07:20;98237.44;;;13.59
15333;BMP180;7766;51.534;6.722;2023-07-30T04:08:21;98236.66;;;13.64
15333;BMP180;7766;51.534;6.722;2023-07-30T04:09:22;98242.44;;;13.56
15333;BMP180;7766;51.534;6.722;2023-07-30T04:10:24;98246.69;;;13.66
15333;BMP180;7766;51.534;6.722;2023-07-30T04:11:25;98242.47;;;13.65
15333;BMP180;7766;51.534;6.722;2023-07-30T04:12:26;98245.38;;;13.64
15333;BMP180;7766;51.534;6.722;2023-07-30T04:13:27;98248.56;;;13.71
15333;BMP180;7766;51.534;6.722;2023-07-30T04:14:27;98247.19;;;13.59
15333;BMP180;7766;51.534;6.722;2023-07-30T04:15:28;98238.78;;;13.62
15333;BMP180;7766;51.534;6.722;2023-07-30T04:16:29;98244.28;;;13.55
15333;BMP180;7766;51.534;6.722;2023-07-30T04:17:31;98255.13;;;13.59
15333;BMP180;7766;51.534;6.722;2023-07-30T04:18:32;98247.16;;;13.49
15333;BMP180;7766;51.534;6.722;2023-07-30T04:19:33;98250.88;;;13.53
15333;BMP180;7766;51.534;6.722;2023-07-30T04:20:34;98241.41;;;13.57
15333;BMP180;7766;51.534;6.722;2023-07-30T04:21:34;98241.41;;;13.57
15333;BMP180;7766;51.534;6.722;2023-07-30T04:22:36;98233.97;;;13.49
15333;BMP180;7766;51.534;6.722;2023-07-30T04:23:37;98229.25;;;13.56
15333;BMP180;7766;51.534;6.722;2023-07-30T04:24:38;98241.94;;;13.68
15333;BMP180;7766;51.534;6.722;2023-07-30T04:25:39;98234.84;;;13.74
15333;BMP180;7766;51.534;6.722;2023-07-30T04:26:41;98230.88;;;13.66
15333;BMP180;7766;51.534;6.722;2023-07-30T04:27:42;98233.53;;;13.71
15333;BMP180;7766;51.534;6.722;2023-07-30T04:28:43;98239.06;;;13.65
15333;BMP180;7766;51.534;6.722;2023-07-30T04:29:44;98236.16;;;13.66
15333;BMP180;7766;51.534;6.722;2023-07-30T04:30:45;98240.34;;;13.63
15333;BMP180;7766;51.534;6.722;2023-07-30T04:31:47;98241.41;;;13.62
15333;BMP180;7766;51.534;6.722;2023-07-30T04:32:48;98244.06;;;13.62
15333;BMP180;7766;51.534;6.722;2023-07-30T04:33:49;98249.31;;;13.62
15333;BMP180;7766;51.534;6.722;2023-07-30T04:34:50;98244.34;;;13.65
15333;BMP180;7766;51.534;6.722;2023-07-30T04:35:51;98244.06;;;13.71
15333;BMP180;7766;51.534;6.722;2023-07-30T04:36:52;98254.59;;;13.62
15333;BMP180;7766;51.534;6.722;2023-07-30T04:37:53;98252.47;;;13.59
15333;BMP180;7766;51.534;6.722;2023-07-30T04:38:54;98253.00;;;13.61
15333;BMP180;7766;51.534;6.722;2023-07-30T04:39:57;98245.38;;;13.69
15333;BMP180;7766;51.534;6.722;2023-07-30T04:40:58;98245.72;;;13.77
15333;BMP180;7766;51.534;6.722;2023-07-30T04:41:59;98243.06;;;13.77
15333;BMP180;7766;51.534;6.722;2023-07-30T04:43:00;98250.16;;;13.72
15333;BMP180;7766;51.534;6.722;2023-07-30T04:44:01;98246.97;;;13.70
15333;BMP180;7766;51.534;6.722;2023-07-30T04:45:03;98249.56;;;13.55
15333;BMP180;7766;51.534;6.722;2023-07-30T04:46:04;98244.84;;;13.62
15333;BMP180;7766;51.534;6.722;2023-07-30T04:47:05;98248.56;;;13.71
15333;BMP180;7766;51.534;6.722;2023-07-30T04:48:06;98243.78;;;13.68
15333;BMP180;7766;51.534;6.722;2023-07-30T04:49:07;98238.00;;;13.66
15333;BMP180;7766;51.534;6.722;2023-07-30T04:50:08;98251.75;;;13.73
15333;BMP180;7766;51.534;6.722;2023-07-30T04:51:09;98254.13;;;13.74
15333;BMP180;7766;51.534;6.722;2023-07-30T04:52:10;98245.13;;;13.70
15333;BMP180;7766;51.534;6.722;2023-07-30T04:53:11;98248.88;;;13.79
15333;BMP180;7766;51.534;6.722;2023-07-30T04:54:12;98252.50;;;13.73
15333;BMP180;7766;51.534;6.722;2023-07-30T04:55:13;98249.38;;;13.76
15333;BMP180;7766;51.534;6.722;2023-07-30T04:56:14;98246.53;;;13.82
15333;BMP180;7766;51.534;6.722;2023-07-30T04:57:15;98238.28;;;13.74
15333;BMP180;7766;51.534;6.722;2023-07-30T04:58:16;98247.31;;;13.78
15333;BMP180;7766;51.534;6.722;2023-07-30T04:59:17;98244.13;;;13.81
15333;BMP180;7766;51.534;6.722;2023-07-30T05:00:18;98236.25;;;13.86
15333;BMP180;7766;51.534;6.722;2023-07-30T05:01:20;98230.41;;;13.84
15333;BMP180;7766;51.534;6.722;2023-07-30T05:02:21;98238.34;;;13.84
15333;BMP180;7766;51.534;6.722;2023-07-30T05:03:22;98237.28;;;13.85
15333;BMP180;7766;51.534;6.722;2023-07-30T05:04:23;98234.88;;;13.79
15333;BMP180;7766;51.534;6.722;2023-07-30T05:05:24;98237.28;;;13.80
15333;BMP180;7766;51.534;6.722;2023-07-30T05:06:25;98239.13;;;13.89
15333;BMP180;7766;51.534;6.722;2023-07-30T05:07:26;98236.25;;;13.91
15333;BMP180;7766;51.534;6.722;2023-07-30T05:08:27;98238.09;;;13.90
15333;BMP180;7766;51.534;6.722;2023-07-30T05:09:28;98245.22;;;13.95
15333;BMP180;7766;51.534;6.722;2023-07-30T05:10:29;98237.81;;;13.92
15333;BMP180;7766;51.534;6.722;2023-07-30T05:11:30;98240.47;;;13.92
15333;BMP180;7766;51.534;6.722;2023-07-30T05:12:31;98235.66;;;13.74
15333;BMP180;7766;51.534;6.722;2023-07-30T05:13:32;98239.91;;;13.80
15333;BMP180;7766;51.534;6.722;2023-07-30T05:14:33;98239.88;;;13.75
15333;BMP180;7766;51.534;6.722;2023-07-30T05:15:34;98245.16;;;13.75
15333;BMP180;7766;51.534;6.722;2023-07-30T05:16:35;98243.59;;;13.79
15333;BMP180;7766;51.534;6.722;2023-07-30T05:17:37;98244.56;;;13.59
15333;BMP180;7766;51.534;6.722;2023-07-30T05:18:38;98243.25;;;13.66
15333;BMP180;7766;51.534;6.722;2023-07-30T05:19:39;98243.06;;;13.77
15333;BMP180;7766;51.534;6.722;2023-07-30T05:20:39;98247.31;;;13.83
15333;BMP180;7766;51.534;6.722;2023-07-30T05:21:40;98246.25;;;13.79
15333;BMP180;7766;51.534;6.722;2023-07-30T05:22:41;98247.03;;;13.80
15333;BMP180;7766;51.534;6.722;2023-07-30T05:23:42;98246.00;;;13.81
15333;BMP180;7766;51.534;6.722;2023-07-30T05:24:43;98248.88;;;13.84
15333;BMP180;7766;51.534;6.722;2023-07-30T05:25:44;98242.03;;;13.83
15333;BMP180;7766;51.534;6.722;2023-07-30T05:26:45;98237.88;;;13.97
15333;BMP180;7766;51.534;6.722;2023-07-30T05:27:46;98238.66;;;14.02
15333;BMP180;7766;51.534;6.722;2023-07-30T05:28:47;98233.13;;;14.08
15333;BMP180;7766;51.534;6.722;2023-07-30T05:29:48;98229.44;;;14.04
15333;BMP180;7766;51.534;6.722;2023-07-30T05:30:50;98229.97;;;14.16
15333;BMP180;7766;51.534;6.722;2023-07-30T05:31:51;98226.28;;;14.17
15333;BMP180;7766;51.534;6.722;2023-07-30T05:32:52;98228.34;;;14.05
15333;BMP180;7766;51.534;6.722;2023-07-30T05:33:53;98229.44;;;14.09
15333;BMP180;7766;51.534;6.722;2023-07-30T05:34:54;98231.03;;;14.15
15333;BMP180;7766;51.534;6.722;2023-07-30T05:35:55;98227.34;;;14.26
15333;BMP180;7766;51.534;6.722;2023-07-30T05:36:56;98227.06;;;14.27
15333;BMP180;7766;51.534;6.722;2023-07-30T05:37:57;98223.63;;;14.31
15333;BMP180;7766;51.534;6.722;2023-07-30T05:38:58;98218.88;;;14.24
15333;BMP180;7766;51.534;6.722;2023-07-30T05:39:59;98221.00;;;14.17
15333;BMP180;7766;51.534;6.722;2023-07-30T05:41:01;98217.31;;;14.23
15333;BMP180;7766;51.534;6.722;2023-07-30T05:42:02;98222.03;;;14.16
15333;BMP180;7766;51.534;6.722;2023-07-30T05:43:03;98218.34;;;14.17
15333;BMP180;7766;51.534;6.722;2023-07-30T05:44:05;98223.88;;;14.15
15333;BMP180;7766;51.534;6.722;2023-07-30T05:45:06;98224.16;;;14.04
15333;BMP180;7766;51.534;6.722;2023-07-30T05:46:07;98231.00;;;14.05
15333;BMP180;7766;51.534;6.722;2023-07-30T05:47:08;98238.69;;;14.16
15333;BMP180;7766;51.534;6.722;2023-07-30T05:48:09;98238.91;;;14.10
15333;BMP180;7766;51.534;6.722;2023-07-30T05:49:11;98231.56;;;14.12
15333;BMP180;7766;51.534;6.722;2023-07-30T05:50:12;98235.25;;;14.21
15333;BMP180;7766;51.534;6.722;2023-07-30T05:51:13;98231.28;;;14.18
15333;BMP180;7766;51.534;6.722;2023-07-30T05:52:14;98234.19;;;14.12
15333;BMP180;7766;51.534;6.722;2023-07-30T05:53:15;98231.56;;;14.22
15333;BMP180;7766;51.534;6.722;2023-07-30T05:54:17;98222.59;;;14.23
15333;BMP180;7766;51.534;6.722;2023-07-30T05:55:18;98239.47;;;14.22
15333;BMP180;7766;51.534;6.722;2023-07-30T05:56:19;98237.09;;;14.15
15333;BMP180;7766;51.534;6.722;2023-07-30T05:57:20;98244.47;;;14.23
15333;BMP180;7766;51.534;6.722;2023-07-30T05:58:21;98246.31;;;14.18